Time;durP1;ratioP1;P1;durP2;ratioP2;P2;SDS_P1;SDS_P2;PMS_P1;PMS_P2;Temp;Humidity;BMP_temperature;BMP_pressure;BME280_temperature;BME280_humidity;BME280_pressure;Samples;Min_cycle;Max_cycle;Signal;HPM_P1;HPM_P2
2022/08/31 00:04:09;;;;;;;20.25;13.80;;;20.80;99.90;;;;;;5073756;28;20083;-64
2022/08/31 00:06:35;;;;;;;21.10;14.23;;;20.80;99.90;;;;;;5073936;28;20020;-64
2022/08/31 00:09:04;;;;;;;19.00;13.40;;;20.70;99.90;;;;;;5073771;28;20448;-65
2022/08/31 00:11:30;;;;;;;19.35;15.05;;;20.70;99.90;;;;;;5055859;28;20064;-64
2022/08/31 00:13:59;;;;;;;20.02;14.38;;;20.70;99.90;;;;;;5073754;28;20083;-64
2022/08/31 00:16:27;;;;;;;19.70;15.70;;;20.60;99.90;;;;;;5073767;28;20086;-64
2022/08/31 00:18:53;;;;;;;22.90;15.65;;;20.60;99.90;;;;;;5073674;28;20075;-64
2022/08/31 00:21:25;;;;;;;25.95;16.08;;;20.50;99.90;;;;;;5055673;28;20062;-64
2022/08/31 00:23:52;;;;;;;29.92;15.98;;;20.50;99.90;;;;;;5073646;28;20411;-64
2022/08/31 00:26:18;;;;;;;24.58;16.23;;;;;;;;;;5073561;28;20024;-64
2022/08/31 00:28:45;;;;;;;21.38;15.25;;;;;;;;;;5073511;28;20034;-64
2022/08/31 00:31:11;;;;;;;20.55;15.32;;;;;;;;;;5073485;28;20033;-64
2022/08/31 00:33:38;;;;;;;21.85;14.43;;;;;;;;;;5073458;28;20021;-64
2022/08/31 00:36:09;;;;;;;18.60;14.48;;;;;;;;;;5073382;28;20016;-65
2022/08/31 00:38:35;;;;;;;19.85;15.50;;;;;;;;;;5073011;28;20041;-64
2022/08/31 00:41:01;;;;;;;22.13;14.43;;;;;;;;;;5073013;28;20020;-64
2022/08/31 00:43:46;;;;;;;22.67;15.70;;;;;;;;;;5073311;28;20086;-64
2022/08/31 00:46:14;;;;;;;25.63;18.00;;;;;;;;;;5073266;28;20035;-64
2022/08/31 00:48:43;;;;;;;19.20;15.65;;;;;;;;;;5055193;28;20024;-65
2022/08/31 00:51:09;;;;;;;35.22;18.08;;;;;;;;;;5073174;28;20495;-64
2022/08/31 00:53:37;;;;;;;23.73;16.63;;;;;;;;;;5073410;28;20032;-65
2022/08/31 00:56:03;;;;;;;21.77;17.35;;;;;;;;;;5055107;28;20025;-64
2022/08/31 00:58:30;;;;;;;22.42;15.98;;;;;;;;;;5073197;28;20024;-65
2022/08/31 01:00:57;;;;;;;25.70;16.85;;;;;;;;;;5073038;28;20031;-65
2022/08/31 01:03:24;;;;;;;21.20;15.77;;;;;;;;;;5073321;28;20024;-65
2022/08/31 01:05:50;;;;;;;21.35;15.57;;;;;;;;;;5073053;28;20024;-64
2022/08/31 01:08:16;;;;;;;26.00;16.50;;;;;;;;;;5073013;28;20033;-64
2022/08/31 01:10:44;;;;;;;23.35;15.77;;;;;;;;;;5072984;28;20033;-64
2022/08/31 01:13:11;;;;;;;23.60;16.65;;;;;;;;;;5072975;28;20082;-65
2022/08/31 01:15:39;;;;;;;21.90;15.95;;;;;;;;;;5054977;28;20028;-65
2022/08/31 01:18:06;;;;;;;22.67;17.20;;;;;;;;;;5054584;28;20513;-64
2022/08/31 01:20:32;;;;;;;23.33;17.25;;;;;;;;;;5072848;28;20112;-64
2022/08/31 01:22:58;;;;;;;33.00;19.10;;;;;;;;;;5072861;28;20029;-65
2022/08/31 01:25:25;;;;;;;24.40;19.45;;;;;;;;;;5072867;28;20087;-65
2022/08/31 01:27:51;;;;;;;26.52;18.95;;;;;;;;;;5072797;28;20074;-64
2022/08/31 01:30:22;;;;;;;25.02;18.83;;;;;;;;;;5072813;28;20025;-65
2022/08/31 01:32:48;;;;;;;26.20;19.15;;;;;;;;;;5072784;28;20032;-65
2022/08/31 01:35:14;;;;;;;24.40;18.02;;;;;;;;;;5073039;28;20103;-65
2022/08/31 01:37:41;;;;;;;21.75;15.98;;;;;;;;;;5072769;28;20058;-65
2022/08/31 01:40:08;;;;;;;16.90;15.10;;;;;;;;;;5072751;28;20021;-64
2022/08/31 01:42:34;;;;;;;39.25;16.02;;;;;;;;;;5054895;28;20365;-64
2022/08/31 01:45:00;;;;;;;27.17;16.25;;;20.50;99.90;;;;;;5072385;28;20032;-64
2022/08/31 01:47:25;;;;;;;25.10;16.50;;;20.00;99.90;;;;;;5072624;28;20029;-65
2022/08/31 01:49:51;;;;;;;25.13;16.63;;;19.90;99.90;;;;;;5073517;28;20039;-64
2022/08/31 01:52:17;;;;;;;27.65;17.27;;;19.90;99.90;;;;;;5076539;28;20024;-64
2022/08/31 01:54:43;;;;;;;22.52;15.65;;;19.90;99.90;;;;;;5076474;28;20029;-64
2022/08/31 01:57:09;;;;;;;18.70;15.38;;;19.90;99.90;;;;;;5058516;28;20025;-65
2022/08/31 01:59:35;;;;;;;23.42;16.35;;;20.00;99.90;;;;;;5076308;28;20062;-65
2022/08/31 02:02:01;;;;;;;27.88;18.08;;;20.00;99.90;;;;;;5076262;28;20050;-64
2022/08/31 02:04:28;;;;;;;31.92;20.70;;;19.90;99.90;;;;;;5076266;28;20039;-65
2022/08/31 02:06:56;;;;;;;37.63;21.88;;;20.00;99.90;;;;;;5076129;28;20403;-64
2022/08/31 02:09:22;;;;;;;32.97;20.52;;;20.00;99.90;;;;;;5076152;28;20477;-65
2022/08/31 02:11:49;;;;;;;28.17;20.55;;;19.90;99.90;;;;;;5076122;28;20028;-64
2022/08/31 02:14:16;;;;;;;36.95;21.60;;;19.90;99.90;;;;;;5075779;28;20052;-64
2022/08/31 02:16:42;;;;;;;31.55;20.02;;;19.90;99.90;;;;;;5075708;28;20400;-64
2022/08/31 02:19:08;;;;;;;37.25;21.48;;;19.90;99.90;;;;;;5075544;28;20048;-65
2022/08/31 02:21:34;;;;;;;36.53;19.90;;;19.90;99.90;;;;;;5057618;28;20027;-64
2022/08/31 02:24:00;;;;;;;28.48;19.50;;;19.90;99.90;;;;;;5075898;28;20036;-64
2022/08/31 02:26:26;;;;;;;28.27;18.70;;;19.80;99.90;;;;;;5075808;28;20099;-64
2022/08/31 02:28:52;;;;;;;26.98;17.55;;;19.80;99.90;;;;;;5075765;28;20132;-64
2022/08/31 02:31:18;;;;;;;26.73;16.63;;;19.80;99.90;;;;;;5075762;28;20535;-64
2022/08/31 02:33:44;;;;;;;25.90;15.93;;;19.80;99.90;;;;;;5075701;28;20093;-64
2022/08/31 02:36:10;;;;;;;22.65;16.48;;;19.80;99.90;;;;;;5075687;28;20028;-65
2022/08/31 02:38:37;;;;;;;24.02;18.15;;;19.80;99.90;;;;;;5057660;28;20430;-64
2022/08/31 02:41:05;;;;;;;22.70;16.38;;;19.70;99.90;;;;;;5075924;28;20158;-64
2022/08/31 02:43:32;;;;;;;28.88;17.00;;;19.70;99.90;;;;;;5075482;28;20530;-64
2022/08/31 02:45:57;;;;;;;20.48;15.55;;;19.70;99.90;;;;;;5057543;28;20025;-64
2022/08/31 02:48:23;;;;;;;21.73;17.60;;;19.70;99.90;;;;;;5057466;28;20504;-64
2022/08/31 02:50:51;;;;;;;25.45;18.38;;;19.70;99.90;;;;;;5057347;28;20033;-64
2022/08/31 02:53:19;;;;;;;23.35;17.02;;;19.70;99.90;;;;;;5075608;28;20024;-64
2022/08/31 02:55:45;;;;;;;33.45;19.52;;;19.70;99.90;;;;;;5075270;28;20032;-64
2022/08/31 02:58:12;;;;;;;25.17;18.30;;;19.60;99.90;;;;;;5075291;28;20028;-64
2022/08/31 03:00:38;;;;;;;21.23;16.90;;;19.60;99.90;;;;;;5056868;28;20025;-64
2022/08/31 03:03:05;;;;;;;23.63;16.70;;;19.60;99.90;;;;;;5075178;28;20024;-64
2022/08/31 03:05:31;;;;;;;26.42;17.02;;;19.70;99.90;;;;;;5075392;28;20063;-65
2022/08/31 03:07:56;;;;;;;22.90;16.20;;;19.70;99.90;;;;;;5057046;28;20025;-64
2022/08/31 03:10:24;;;;;;;26.48;17.35;;;19.70;99.90;;;;;;5075039;28;20032;-65
2022/08/31 03:12:51;;;;;;;26.98;17.38;;;19.70;99.90;;;;;;5056968;28;20522;-64
2022/08/31 03:15:19;;;;;;;27.77;18.50;;;19.60;99.90;;;;;;5075205;28;20025;-64
2022/08/31 03:17:45;;;;;;;28.70;17.80;;;19.60;99.90;;;;;;5074586;28;20060;-64
2022/08/31 03:20:12;;;;;;;27.67;19.60;;;19.60;99.90;;;;;;5074869;28;20400;-64
2022/08/31 03:22:38;;;;;;;27.63;18.58;;;19.70;99.90;;;;;;5056804;28;20046;-64
2022/08/31 03:25:05;;;;;;;27.25;18.38;;;19.70;99.90;;;;;;5074719;28;20081;-64
2022/08/31 03:27:31;;;;;;;27.58;16.40;;;19.70;99.90;;;;;;5074628;28;20032;-65
2022/08/31 03:29:58;;;;;;;30.23;19.20;;;19.70;99.90;;;;;;5074720;28;20080;-64
2022/08/31 03:32:26;;;;;;;29.05;17.90;;;19.60;99.90;;;;;;5074615;28;20024;-65
2022/08/31 03:34:56;;;;;;;27.95;17.48;;;19.60;99.90;;;;;;5056547;28;20119;-64
2022/08/31 03:37:22;;;;;;;33.70;17.38;;;19.60;99.90;;;;;;5056351;28;20036;-65
2022/08/31 03:39:48;;;;;;;26.95;18.67;;;19.50;99.90;;;;;;5074464;28;20081;-65
2022/08/31 03:42:14;;;;;;;23.42;18.27;;;19.50;99.90;;;;;;5056454;28;20460;-64
2022/08/31 03:44:40;;;;;;;27.45;17.38;;;19.60;99.90;;;;;;5074345;28;20056;-64
2022/08/31 03:47:06;;;;;;;24.48;18.17;;;19.60;99.90;;;;;;5074352;28;20521;-65
2022/08/31 03:49:32;;;;;;;34.97;17.90;;;19.60;99.90;;;;;;5073958;28;20519;-65
2022/08/31 03:51:58;;;;;;;25.35;17.25;;;19.60;99.90;;;;;;5056453;28;20037;-64
2022/08/31 03:54:24;;;;;;;26.52;17.75;;;19.40;99.90;;;;;;5073891;28;20025;-63
2022/08/31 03:56:50;;;;;;;26.85;17.38;;;19.40;99.90;;;;;;5074378;28;20480;-64
2022/08/31 03:59:16;;;;;;;29.75;18.35;;;19.40;99.90;;;;;;5074090;28;20110;-64
2022/08/31 04:01:43;;;;;;;26.75;18.30;;;19.30;99.90;;;;;;5056081;28;20052;-64
2022/08/31 04:04:11;;;;;;;32.65;18.95;;;19.30;99.90;;;;;;5073681;28;20044;-64
2022/08/31 04:06:40;;;;;;;31.55;18.58;;;19.20;99.90;;;;;;5055863;28;20408;-65
2022/08/31 04:09:06;;;;;;;28.95;19.50;;;19.20;99.90;;;;;;5073745;28;20043;-64
2022/08/31 04:11:31;;;;;;;24.35;17.98;;;19.10;99.90;;;;;;5073794;28;20115;-64
2022/08/31 04:13:57;;;;;;;28.88;17.92;;;19.20;99.90;;;;;;5073309;28;20035;-64
2022/08/31 04:16:23;;;;;;;29.20;18.67;;;19.20;99.90;;;;;;5073771;28;20024;-64
2022/08/31 04:18:49;;;;;;;30.25;18.48;;;19.20;99.90;;;;;;5036484;28;20061;-64
2022/08/31 04:21:26;;;;;;;24.73;16.98;;;19.20;99.90;;;;;;5033816;28;20044;-64
2022/08/31 04:23:53;;;;;;;28.92;18.40;;;19.20;99.90;;;;;;5033821;28;20466;-64
2022/08/31 04:26:25;;;;;;;26.80;17.70;;;19.20;99.90;;;;;;5033671;28;20057;-64
2022/08/31 04:28:52;;;;;;;28.13;18.30;;;19.20;99.90;;;;;;5032271;28;20163;-64
2022/08/31 04:31:19;;;;;;;27.67;18.92;;;19.20;99.90;;;;;;5033633;28;20034;-64
2022/08/31 04:33:45;;;;;;;25.35;18.48;;;19.20;99.90;;;;;;5032239;28;20072;-64
2022/08/31 04:36:17;;;;;;;31.63;18.05;;;19.20;99.90;;;;;;5033595;28;20038;-64
2022/08/31 04:38:44;;;;;;;35.85;18.65;;;19.30;99.90;;;;;;5032211;28;20462;-65
2022/08/31 04:41:13;;;;;;;22.50;17.70;;;19.30;99.90;;;;;;5033548;28;20025;-65
2022/08/31 04:43:42;;;;;;;27.05;17.83;;;19.30;99.90;;;;;;5032324;28;20370;-64
2022/08/31 04:46:08;;;;;;;27.63;17.60;;;19.30;99.90;;;;;;5031992;28;20025;-63
2022/08/31 04:48:34;;;;;;;21.92;17.20;;;19.30;99.90;;;;;;5033442;28;20086;-64
2022/08/31 04:51:13;;;;;;;27.35;17.98;;;19.30;99.90;;;;;;5031985;28;20038;-64
2022/08/31 04:53:40;;;;;;;25.75;17.48;;;19.30;99.90;;;;;;5033029;28;20062;-64
2022/08/31 04:56:14;;;;;;;26.85;17.30;;;19.40;99.90;;;;;;5032932;28;20492;-64
2022/08/31 04:58:52;;;;;;;24.00;16.88;;;19.40;99.90;;;;;;5033256;28;20025;-65
2022/08/31 05:01:23;;;;;;;31.15;18.77;;;19.50;99.90;;;;;;5032001;28;20026;-64
2022/08/31 05:03:51;;;;;;;31.90;19.35;;;19.50;99.90;;;;;;5033146;28;20025;-65
2022/08/31 05:06:19;;;;;;;22.52;18.23;;;19.60;99.90;;;;;;5033121;28;20079;-65
2022/08/31 05:08:45;;;;;;;27.38;17.90;;;19.60;99.90;;;;;;5033188;28;20026;-64
2022/08/31 05:11:17;;;;;;;24.48;17.33;;;19.70;99.90;;;;;;5033062;28;20083;-64
2022/08/31 05:13:43;;;;;;;23.10;17.38;;;19.70;99.90;;;;;;5031464;28;20059;-65
2022/08/31 05:16:11;;;;;;;22.30;17.35;;;19.70;99.90;;;;;;5033028;28;20091;-65
2022/08/31 05:18:39;;;;;;;27.83;17.95;;;19.70;99.90;;;;;;5060791;28;20080;-64
2022/08/31 05:21:19;;;;;;;26.20;17.77;;;19.80;99.90;;;;;;5072890;28;20028;-64
2022/08/31 05:23:47;;;;;;;27.35;17.35;;;19.90;99.90;;;;;;5073429;28;20078;-65
2022/08/31 05:26:22;;;;;;;33.83;19.38;;;19.90;99.90;;;;;;5076990;28;20024;-65
2022/08/31 05:28:48;;;;;;;27.23;17.60;;;20.00;99.90;;;;;;5076814;28;20033;-65
2022/08/31 05:31:15;;;;;;;27.33;17.80;;;20.00;99.90;;;;;;5058824;28;20418;-65
2022/08/31 05:33:42;;;;;;;31.63;18.85;;;20.10;99.90;;;;;;5058836;28;20029;-65
2022/08/31 05:36:09;;;;;;;30.90;17.90;;;20.20;99.90;;;;;;5076581;28;20035;-65
2022/08/31 05:38:36;;;;;;;26.85;17.42;;;20.20;99.90;;;;;;5076692;28;20106;-68
2022/08/31 05:41:02;;;;;;;27.55;16.58;;;20.20;99.90;;;;;;5058643;28;20021;-67
2022/08/31 05:43:28;;;;;;;26.77;17.15;;;20.30;99.90;;;;;;5076591;28;20021;-65
2022/08/31 05:45:54;;;;;;;22.23;16.88;;;20.30;99.90;;;;;;5076598;28;20094;-63
2022/08/31 05:48:21;;;;;;;25.77;17.42;;;20.40;99.90;;;;;;5076396;28;20040;-63
2022/08/31 05:51:18;;;;;;;32.58;17.35;;;20.30;99.90;;;;;;5076543;28;20065;-67
2022/08/31 05:53:44;;;;;;;33.25;19.40;;;20.40;99.90;;;;;;5076696;28;20021;-67
2022/08/31 05:56:16;;;;;;;33.45;17.65;;;20.50;99.90;;;;;;5076331;28;20021;-64
2022/08/31 05:58:43;;;;;;;34.33;18.15;;;20.60;99.90;;;;;;5075932;28;20385;-65
2022/08/31 06:01:31;;;;;;;29.23;17.85;;;20.60;99.90;;;;;;5058310;28;20461;-65
2022/08/31 06:03:57;;;;;;;28.30;17.08;;;20.70;99.90;;;;;;5074811;28;20048;-65
2022/08/31 06:06:24;;;;;;;23.27;16.88;;;20.80;99.90;;;;;;5074765;28;20103;-65
2022/08/31 06:08:51;;;;;;;22.92;16.92;;;20.90;99.90;;;;;;5075530;28;20032;-65
2022/08/31 06:11:18;;;;;;;20.23;15.57;;;20.90;99.90;;;;;;5075714;28;20480;-65
2022/08/31 06:13:46;;;;;;;27.60;17.10;;;20.90;99.90;;;;;;5057330;28;20024;-65
2022/08/31 06:16:12;;;;;;;21.90;17.40;;;20.90;99.90;;;;;;5075597;28;20104;-65
2022/08/31 06:18:57;;;;;;;22.27;16.05;;;21.00;99.90;;;;;;5057565;28;20162;-66
2022/08/31 06:21:29;;;;;;;21.60;16.30;;;21.10;99.90;;;;;;5075246;28;20111;-65
2022/08/31 06:23:56;;;;;;;24.67;16.73;;;21.10;99.90;;;;;;5074122;28;20035;-66
2022/08/31 06:26:25;;;;;;;24.48;16.83;;;21.10;99.90;;;;;;5075743;28;20040;-65
2022/08/31 06:28:53;;;;;;;26.08;17.60;;;21.10;99.90;;;;;;5075510;28;20029;-65
2022/08/31 06:31:25;;;;;;;24.52;16.60;;;21.10;99.90;;;;;;5075445;28;20079;-66
2022/08/31 06:33:51;;;;;;;26.42;16.60;;;21.10;99.90;;;;;;5075701;28;20027;-65
2022/08/31 06:36:19;;;;;;;21.40;16.88;;;21.10;99.90;;;;;;5074863;28;20024;-65
2022/08/31 06:38:46;;;;;;;22.33;16.95;;;21.10;99.90;;;;;;5075579;28;20044;-64
2022/08/31 06:41:16;;;;;;;23.13;18.13;;;21.10;99.90;;;;;;5075098;28;20040;-64
2022/08/31 06:43:42;;;;;;;29.33;18.02;;;21.20;99.90;;;;;;5075274;28;20103;-65
2022/08/31 06:46:09;;;;;;;20.83;16.75;;;21.20;99.90;;;;;;5073835;28;20035;-65
2022/08/31 06:48:35;;;;;;;21.27;17.52;;;21.30;99.90;;;;;;5073486;28;20615;-64
2022/08/31 06:51:01;;;;;;;22.80;16.88;;;21.40;99.90;;;;;;5075277;28;20123;-65
2022/08/31 06:53:28;;;;;;;24.33;17.92;;;21.50;99.90;;;;;;5074505;28;20086;-65
2022/08/31 06:55:55;;;;;;;29.37;17.83;;;21.50;99.90;;;;;;5074624;28;20021;-65
2022/08/31 06:58:20;;;;;;;26.35;19.65;;;21.60;99.90;;;;;;5073785;28;20104;-64
2022/08/31 07:00:48;;;;;;;27.58;19.60;;;21.70;99.90;;;;;;5073245;28;20032;-64
2022/08/31 07:03:22;;;;;;;24.33;18.80;;;21.70;99.90;;;;;;5073188;28;20029;-64
2022/08/31 07:05:51;;;;;;;25.77;19.00;;;21.80;99.90;;;;;;5073148;28;20472;-65
2022/08/31 07:08:18;;;;;;;24.23;16.02;;;21.80;99.90;;;;;;5072955;28;20519;-64
2022/08/31 07:10:45;;;;;;;26.83;19.00;;;21.90;99.90;;;;;;5073135;28;20037;-65
2022/08/31 07:13:11;;;;;;;30.40;18.52;;;22.00;99.90;;;;;;5073436;28;20371;-63
2022/08/31 07:15:37;;;;;;;32.22;18.30;;;22.00;99.90;;;;;;5072008;28;20051;-69
2022/08/31 07:18:02;;;;;;;34.90;18.40;;;22.20;99.90;;;;;;5073317;28;20539;-66
2022/08/31 07:20:28;;;;;;;24.02;17.63;;;22.30;99.90;;;;;;5074509;28;20029;-63
2022/08/31 07:22:56;;;;;;;28.90;17.98;;;22.40;99.90;;;;;;5072823;28;20491;-64
2022/08/31 07:25:22;;;;;;;22.10;17.33;;;22.60;99.90;;;;;;5074535;28;20029;-68
2022/08/31 07:27:51;;;;;;;27.25;18.45;;;22.80;99.90;;;;;;5074214;28;20040;-71
2022/08/31 07:30:18;;;;;;;22.20;15.98;;;23.10;99.90;;;;;;5074476;28;20060;-67
2022/08/31 07:32:43;;;;;;;17.50;15.35;;;23.30;99.90;;;;;;5074434;28;20609;-70
2022/08/31 07:35:09;;;;;;;19.63;15.02;;;23.40;99.90;;;;;;5074276;28;20029;-68
2022/08/31 07:43:04;;;;;;;18.67;16.10;;;24.00;99.90;;;;;;5073687;28;20063;-65
2022/08/31 07:45:30;;;;;;;19.88;14.63;;;24.20;99.90;;;;;;5054287;28;20450;-65
2022/08/31 07:47:58;;;;;;;22.05;15.38;;;24.40;99.90;;;;;;5072762;28;20064;-65
2022/08/31 07:50:26;;;;;;;21.67;16.35;;;24.60;99.90;;;;;;5072719;28;20025;-66
2022/08/31 07:52:54;;;;;;;30.25;15.88;;;24.80;99.90;;;;;;5074043;28;20025;-66
2022/08/31 07:55:24;;;;;;;25.05;13.38;;;24.90;99.90;;;;;;5074091;28;20033;-64
2022/08/31 07:57:53;;;;;;;19.55;14.32;;;25.10;99.90;;;;;;5074008;28;20062;-65
2022/08/31 08:00:34;;;;;;;21.90;11.45;;;25.30;99.90;;;;;;5073983;28;20021;-66
2022/08/31 08:03:05;;;;;;;15.50;10.73;;;25.40;99.90;;;;;;5074029;28;20032;-65
2022/08/31 08:05:37;;;;;;;16.00;12.02;;;25.50;99.90;;;;;;5073967;28;20028;-65
2022/08/31 08:08:04;;;;;;;17.38;13.63;;;25.60;99.90;;;;;;5073839;28;20028;-65
2022/08/31 08:10:32;;;;;;;17.52;11.55;;;25.60;99.90;;;;;;5073855;28;20161;-65
2022/08/31 08:13:02;;;;;;;16.77;11.88;;;25.70;99.90;;;;;;5073744;28;20089;-65
2022/08/31 08:15:29;;;;;;;12.43;10.43;;;25.90;99.90;;;;;;5073679;28;20020;-66
2022/08/31 08:17:55;;;;;;;15.70;10.10;;;26.00;99.90;;;;;;5073500;28;20056;-65
2022/08/31 08:20:21;;;;;;;13.60;10.25;;;26.10;99.90;;;;;;5073936;28;20032;-65
2022/08/31 08:22:47;;;;;;;11.50;9.30;;;26.20;99.90;;;;;;5073533;28;20483;-65
2022/08/31 08:25:13;;;;;;;17.92;9.25;;;26.30;99.90;;;;;;5055575;28;20116;-66
2022/08/31 08:27:39;;;;;;;14.68;9.55;;;26.40;99.90;;;;;;5073446;28;20020;-66
2022/08/31 08:30:08;;;;;;;17.42;10.30;;;26.40;99.90;;;;;;5073471;28;20494;-65
2022/08/31 08:32:34;;;;;;;16.17;9.68;;;26.30;99.90;;;;;;5073405;28;20368;-65
2022/08/31 08:35:00;;;;;;;12.27;9.05;;;26.40;99.90;;;;;;5073395;28;20108;-66
2022/08/31 08:37:27;;;;;;;13.93;10.60;;;26.70;99.90;;;;;;5073328;28;20100;-65
2022/08/31 08:39:54;;;;;;;13.25;10.65;;;;;;;;;;5073616;28;20032;-66
2022/08/31 08:42:22;;;;;;;22.60;10.88;;;27.10;99.90;;;;;;5073235;28;20052;-65
2022/08/31 08:44:48;;;;;;;15.75;11.18;;;27.40;99.90;;;;;;5073256;28;20036;-66
2022/08/31 08:47:19;;;;;;;13.50;9.60;;;27.60;99.90;;;;;;5073209;28;20085;-65
2022/08/31 08:49:49;;;;;;;15.88;10.68;;;27.30;99.90;;;;;;5073183;28;20526;-65
2022/08/31 08:52:24;;;;;;;22.27;11.00;;;26.90;99.90;;;;;;5055214;28;20403;-65
2022/08/31 08:54:52;;;;;;;16.92;10.55;;;26.60;99.90;;;;;;5073122;28;20021;-65
2022/08/31 08:57:28;;;;;;;20.63;10.20;;;26.50;99.90;;;;;;5055077;28;20028;-67
2022/08/31 08:59:57;;;;;;;11.68;9.55;;;26.60;99.90;;;;;;5072739;28;20024;-65
2022/08/31 09:02:59;;;;;;;17.13;9.85;;;26.60;99.90;;;;;;5073123;28;20028;-66
2022/08/31 09:06:05;;;;;;;13.73;8.80;;;26.50;99.90;;;;;;5035136;28;20048;-67
2022/08/31 09:08:41;;;;;;;13.25;8.95;;;26.50;99.90;;;;;;5072845;28;20031;-66
2022/08/31 09:11:27;;;;;;;11.90;8.52;;;26.60;99.90;;;;;;5072683;28;20512;-65
2022/08/31 09:14:18;;;;;;;10.48;8.10;;;26.60;99.90;;;;;;5055254;28;20036;-66
2022/08/31 09:17:17;;;;;;;12.27;9.57;;;26.70;99.90;;;;;;5072543;28;20074;-66
2022/08/31 09:19:58;;;;;;;16.30;8.65;;;26.60;99.90;;;;;;5093112;28;20035;-66
2022/08/31 09:22:28;;;;;;;8.85;7.05;;;26.80;99.90;;;;;;5072905;28;20059;-67
2022/08/31 09:24:58;;;;;;;9.32;6.72;;;27.00;99.90;;;;;;5089253;28;20099;-68
2022/08/31 09:27:46;;;;;;;10.35;7.80;;;27.10;99.90;;;;;;5091771;28;20024;-67
2022/08/31 09:30:34;;;;;;;12.25;9.10;;;27.10;99.90;;;;;;5089612;28;20410;-67
2022/08/31 09:33:00;;;;;;;10.60;9.50;;;27.30;99.90;;;;;;5092951;28;20035;-65
2022/08/31 09:35:45;;;;;;;10.50;7.60;;;27.60;99.90;;;;;;5092836;28;20021;-65
2022/08/31 09:38:25;;;;;;;8.43;6.93;;;27.40;99.90;;;;;;5092922;28;20051;-65
2022/08/31 09:40:51;;;;;;;11.77;9.20;;;27.90;99.90;;;;;;5090585;28;20035;-66
2022/08/31 09:43:27;;;;;;;13.70;8.48;;;27.80;99.90;;;;;;5074199;28;20028;-65
2022/08/31 09:46:19;;;;;;;11.98;8.75;;;28.20;99.90;;;;;;5074603;28;20027;-66
2022/08/31 09:49:01;;;;;;;9.40;7.93;;;28.60;99.90;;;;;;5091281;28;20040;-67
2022/08/31 09:51:31;;;;;;;14.00;7.28;;;28.60;99.90;;;;;;5089195;28;20023;-66
2022/08/31 09:56:55;;;;;;;8.50;7.60;;;29.40;99.90;;;;;;5088969;28;20031;-68
2022/08/31 09:59:43;;;;;;;12.05;6.32;;;29.30;99.90;;;;;;5085867;28;20027;-67
2022/08/31 10:02:32;;;;;;;11.02;6.07;;;29.70;99.90;;;;;;5088460;28;20052;-68
2022/08/31 10:05:04;;;;;;;6.43;4.75;;;30.20;99.90;;;;;;5089810;28;20019;-70
2022/08/31 10:07:38;;;;;;;8.80;5.05;;;30.20;99.90;;;;;;5071879;28;20379;-67
2022/08/31 10:10:10;;;;;;;6.88;4.82;;;30.20;99.90;;;;;;5086104;28;20412;-70
2022/08/31 10:12:44;;;;;;;6.90;6.20;;;30.50;99.90;;;;;;5093813;28;20099;-66
2022/08/31 10:15:29;;;;;;;8.73;6.03;;;30.70;99.90;;;;;;5095053;28;20028;-70
2022/08/31 10:18:24;;;;;;;7.95;6.15;;;30.60;99.90;;;;;;5094910;28;20048;-67
2022/08/31 10:21:06;;;;;;;9.32;6.68;;;30.70;99.90;;;;;;5057464;28;20054;-66
2022/08/31 10:23:53;;;;;;;10.25;8.00;;;30.90;99.90;;;;;;5095317;28;20028;-68
2022/08/31 10:49:37;;;;;;;8.70;5.40;;;32.70;99.90;;;;;;5067061;28;20410;-65
2022/08/31 10:52:16;;;;;;;;;;;32.80;99.90;;;;;;5070280;28;20037;-65
2022/08/31 10:55:08;;;;;;;9.45;5.38;;;32.90;99.90;;;;;;5067793;28;19913;-65
2022/08/31 10:57:35;;;;;;;12.23;5.82;;;;;;;;;;5067930;28;20028;-65
2022/08/31 11:00:40;;;;;;;7.40;5.18;;;32.60;99.90;;;;;;5067981;28;20028;-66
2022/08/31 11:03:12;;;;;;;8.80;6.20;;;32.30;99.90;;;;;;5064661;28;20536;-66
2022/08/31 11:05:59;;;;;;;5.43;4.88;;;32.90;99.90;;;;;;5069701;28;20075;-66
2022/08/31 11:08:51;;;;;;;5.53;4.13;;;33.50;99.90;;;;;;5068449;28;20036;-66
2022/08/31 11:11:26;;;;;;;7.20;4.43;;;34.90;99.90;;;;;;5069687;28;20025;-65
2022/08/31 11:14:25;;;;;;;9.48;4.85;;;36.30;99.60;;;;;;5068480;28;20068;-70
2022/08/31 11:17:01;;;;;;;6.70;5.00;;;;;;;;;;5069559;28;20667;-69
2022/08/31 11:19:49;;;;;;;7.25;5.03;;;37.20;96.20;;;;;;5069073;28;20468;-72
2022/08/31 11:22:36;;;;;;;6.00;5.13;;;36.90;94.10;;;;;;5069236;28;20029;-71
2022/08/31 11:25:15;;;;;;;5.95;5.20;;;37.10;94.50;;;;;;5066563;28;20029;-69
2022/08/31 11:27:49;;;;;;;6.15;4.47;;;37.50;95.10;;;;;;5068845;28;20035;-68
2022/08/31 11:30:25;;;;;;;5.32;4.82;;;37.80;93.00;;;;;;5049003;28;20063;-66
2022/08/31 11:33:01;;;;;;;10.90;4.28;;;37.70;90.70;;;;;;5060968;28;20035;-69
2022/08/31 11:36:28;;;;;;;6.60;4.03;;;39.40;99.90;;;;;;5066146;28;20036;-69
2022/08/31 11:39:01;;;;;;;10.80;3.60;;;39.50;90.90;;;;;;5060211;28;20533;-70
2022/08/31 11:41:37;;;;;;;4.78;4.03;;;37.80;92.10;;;;;;5067510;28;20051;-70
2022/08/31 11:44:09;;;;;;;10.82;4.07;;;36.90;93.30;;;;;;5068667;28;20456;-69
2022/08/31 11:47:11;;;;;;;9.25;3.92;;;38.30;92.20;;;;;;5066694;28;20074;-70
2022/08/31 11:50:04;;;;;;;16.50;3.88;;;38.40;90.70;;;;;;5059343;28;20033;-67
2022/08/31 11:52:52;;;;;;;7.20;3.83;;;38.40;90.70;;;;;;5053979;28;20111;-68
2022/08/31 11:55:48;;;;;;;12.00;4.47;;;38.40;90.90;;;;;;5055494;28;20461;-68
2022/08/31 11:58:24;;;;;;;8.50;4.10;;;38.10;90.30;;;;;;5051089;28;20049;-68
2022/08/31 12:01:11;;;;;;;19.65;5.43;;;39.20;88.40;;;;;;5053747;28;20056;-68
2022/08/31 12:03:42;;;;;;;6.07;4.13;;;36.80;90.60;;;;;;5053667;28;20033;-69
2022/08/31 12:06:28;;;;;;;6.25;5.00;;;34.70;93.00;;;;;;5054875;28;20057;-66
2022/08/31 12:08:57;;;;;;;9.43;4.53;;;33.60;94.20;;;;;;5033635;28;20037;-66
2022/08/31 12:11:31;;;;;;;11.27;5.13;;;32.80;95.90;;;;;;5053676;28;20021;-65
2022/08/31 12:14:24;;;;;;;8.52;5.63;;;32.70;96.30;;;;;;5055180;28;20029;-68
2022/08/31 12:17:01;;;;;;;19.98;6.00;;;32.20;97.90;;;;;;5045192;28;20099;-70
2022/08/31 12:26:08;;;;;;;8.77;5.30;;;31.00;99.90;;;;;;5054747;28;20059;-66
2022/08/31 12:29:12;;;;;;;8.70;4.68;;;31.00;99.90;;;;;;5012355;28;20124;-66
2022/08/31 12:31:40;;;;;;;6.95;4.90;;;30.90;99.90;;;;;;5012619;28;20030;-67
2022/08/31 12:34:18;;;;;;;5.80;5.20;;;31.00;99.90;;;;;;5012675;28;20116;-66
2022/08/31 12:36:44;;;;;;;5.22;4.47;;;30.70;99.90;;;;;;4996048;28;20038;-65
2022/08/31 12:39:20;;;;;;;18.33;5.63;;;30.80;99.90;;;;;;5009850;28;20080;-66
2022/08/31 12:41:55;;;;;;;10.75;4.70;;;30.70;99.90;;;;;;5011954;28;20068;-64
2022/08/31 12:44:34;;;;;;;7.15;4.90;;;30.70;99.90;;;;;;4995818;28;20448;-64
2022/08/31 12:47:02;;;;;;;7.18;4.82;;;30.50;99.90;;;;;;5012264;28;20064;-66
2022/08/31 12:49:52;;;;;;;7.07;4.32;;;32.50;99.90;;;;;;4995149;28;20088;-67
2022/08/31 12:52:55;;;;;;;11.93;4.90;;;36.40;95.80;;;;;;5012517;28;20050;-66
2022/08/31 12:56:00;;;;;;;4.38;3.80;;;37.40;93.90;;;;;;5012394;28;20046;-65
2022/08/31 12:58:56;;;;;;;7.50;3.90;;;39.40;89.20;;;;;;5011515;28;20042;-65
2022/08/31 13:01:25;;;;;;;14.65;4.65;;;40.60;84.20;;;;;;5011111;28;20049;-65
2022/08/31 13:04:02;;;;;;;6.40;4.03;;;41.20;83.70;;;;;;5053897;28;20545;-66
2022/08/31 13:06:31;;;;;;;5.97;4.43;;;42.00;78.70;;;;;;5052940;28;20025;-70
2022/08/31 13:08:58;;;;;;;7.80;3.83;;;42.30;78.30;;;;;;5054180;28;20115;-68
2022/08/31 13:11:34;;;;;;;3.95;3.53;;;42.90;75.40;;;;;;5053769;28;20021;-66
2022/08/31 13:14:09;;;;;;;6.82;3.60;;;;;;;;;;5053731;28;20547;-66
2022/08/31 13:16:38;;;;;;;5.60;4.13;;;;;;;;;;5054122;28;20033;-64
2022/08/31 13:19:05;;;;;;;5.20;3.90;;;43.50;70.00;;;;;;5053884;28;20029;-65
2022/08/31 13:21:33;;;;;;;5.35;3.20;;;43.60;70.90;;;;;;5052457;28;20028;-65
2022/08/31 13:24:09;;;;;;;3.85;3.55;;;44.40;67.30;;;;;;5054029;28;20028;-65
2022/08/31 13:26:36;;;;;;;4.38;3.58;;;44.50;82.60;;;;;;5054052;28;20111;-65
2022/08/31 13:29:06;;;;;;;4.50;3.53;;;44.70;78.70;;;;;;5052633;28;20036;-66
2022/08/31 13:31:47;;;;;;;10.37;3.87;;;44.40;72.80;;;;;;5053891;28;20469;-69
2022/08/31 13:34:13;;;;;;;8.05;3.65;;;44.40;73.40;;;;;;5052549;28;20029;-65
2022/08/31 13:36:42;;;;;;;8.82;3.58;;;;;;;;;;5053743;28;20433;-67
2022/08/31 13:39:18;;;;;;;7.60;3.80;;;;;;;;;;5053452;28;20040;-67
2022/08/31 13:42:04;;;;;;;3.50;3.20;;;;;;;;;;5053437;28;20029;-69
2022/08/31 13:44:36;;;;;;;8.30;3.78;;;42.60;68.30;;;;;;5051017;28;20465;-65
2022/08/31 13:47:11;;;;;;;4.03;3.20;;;44.00;74.60;;;;;;5052678;28;20056;-65
2022/08/31 13:49:40;;;;;;;3.40;2.95;;;44.00;82.50;;;;;;5053436;28;20209;-66